sensor_id;sensor_type;location;lat;lon;timestamp;P1;durP1;ratioP1;P2;durP2;ratioP2
22995;SDS011;11664;49.774;8.650;2023-11-21T00:00:09;11.98;;;11.23;;
22995;SDS011;11664;49.774;8.650;2023-11-21T00:02:43;6.80;;;6.20;;
22995;SDS011;11664;49.774;8.650;2023-11-21T00:05:11;6.72;;;6.20;;
22995;SDS011;11664;49.774;8.650;2023-11-21T00:07:39;7.30;;;6.90;;
22995;SDS011;11664;49.774;8.650;2023-11-21T00:10:06;7.03;;;6.60;;
22995;SDS011;11664;49.774;8.650;2023-11-21T00:12:38;5.47;;;5.18;;
22995;SDS011;11664;49.774;8.650;2023-11-21T00:15:07;5.37;;;5.07;;
22995;SDS011;11664;49.774;8.650;2023-11-21T00:17:36;11.20;;;10.40;;
22995;SDS011;11664;49.774;8.650;2023-11-21T00:20:08;11.25;;;10.70;;
22995;SDS011;11664;49.774;8.650;2023-11-21T00:22:40;12.45;;;11.63;;
22995;SDS011;11664;49.774;8.650;2023-11-21T00:25:06;7.88;;;7.47;;
22995;SDS011;11664;49.774;8.650;2023-11-21T00:27:37;11.75;;;11.15;;
22995;SDS011;11664;49.774;8.650;2023-11-21T00:30:03;13.90;;;12.98;;
22995;SDS011;11664;49.774;8.650;2023-11-21T00:32:44;13.70;;;13.05;;
22995;SDS011;11664;49.774;8.650;2023-11-21T00:35:10;18.55;;;17.55;;
22995;SDS011;11664;49.774;8.650;2023-11-21T00:37:35;15.80;;;14.65;;
22995;SDS011;11664;49.774;8.650;2023-11-21T00:40:10;13.85;;;13.10;;
22995;SDS011;11664;49.774;8.650;2023-11-21T00:42:42;10.73;;;10.02;;
22995;SDS011;11664;49.774;8.650;2023-11-21T00:45:07;19.38;;;18.38;;
22995;SDS011;11664;49.774;8.650;2023-11-21T00:47:40;18.58;;;17.50;;
22995;SDS011;11664;49.774;8.650;2023-11-21T00:50:08;8.40;;;8.00;;
22995;SDS011;11664;49.774;8.650;2023-11-21T00:52:34;9.45;;;8.95;;
22995;SDS011;11664;49.774;8.650;2023-11-21T00:55:01;21.40;;;20.17;;
22995;SDS011;11664;49.774;8.650;2023-11-21T00:57:28;15.93;;;15.15;;
22995;SDS011;11664;49.774;8.650;2023-11-21T00:59:56;15.23;;;14.43;;
22995;SDS011;11664;49.774;8.650;2023-11-21T01:02:22;22.17;;;20.77;;
22995;SDS011;11664;49.774;8.650;2023-11-21T01:04:47;13.10;;;12.25;;
22995;SDS011;11664;49.774;8.650;2023-11-21T01:07:16;6.82;;;6.40;;
22995;SDS011;11664;49.774;8.650;2023-11-21T01:09:45;6.35;;;6.05;;
22995;SDS011;11664;49.774;8.650;2023-11-21T01:12:17;4.85;;;4.63;;
22995;SDS011;11664;49.774;8.650;2023-11-21T01:14:48;5.03;;;4.72;;
22995;SDS011;11664;49.774;8.650;2023-11-21T01:17:20;7.65;;;7.28;;
22995;SDS011;11664;49.774;8.650;2023-11-21T01:19:50;8.43;;;8.00;;
22995;SDS011;11664;49.774;8.650;2023-11-21T01:22:19;7.55;;;7.15;;
22995;SDS011;11664;49.774;8.650;2023-11-21T01:24:50;11.70;;;10.98;;
22995;SDS011;11664;49.774;8.650;2023-11-21T01:27:16;4.28;;;3.97;;
22995;SDS011;11664;49.774;8.650;2023-11-21T01:29:42;6.03;;;4.50;;
22995;SDS011;11664;49.774;8.650;2023-11-21T01:32:10;7.10;;;6.60;;
22995;SDS011;11664;49.774;8.650;2023-11-21T01:34:42;16.17;;;15.05;;
22995;SDS011;11664;49.774;8.650;2023-11-21T01:37:07;21.50;;;20.10;;
22995;SDS011;11664;49.774;8.650;2023-11-21T01:39:34;9.70;;;9.10;;
22995;SDS011;11664;49.774;8.650;2023-11-21T01:41:59;5.70;;;5.28;;
22995;SDS011;11664;49.774;8.650;2023-11-21T01:44:25;5.63;;;5.05;;
22995;SDS011;11664;49.774;8.650;2023-11-21T01:46:53;4.47;;;4.07;;
22995;SDS011;11664;49.774;8.650;2023-11-21T01:49:19;6.82;;;5.95;;
22995;SDS011;11664;49.774;8.650;2023-11-21T01:51:47;7.22;;;6.60;;
22995;SDS011;11664;49.774;8.650;2023-11-21T01:54:14;4.65;;;4.35;;
22995;SDS011;11664;49.774;8.650;2023-11-21T01:56:42;5.15;;;4.85;;
22995;SDS011;11664;49.774;8.650;2023-11-21T01:59:10;8.35;;;7.82;;
22995;SDS011;11664;49.774;8.650;2023-11-21T02:01:38;7.28;;;6.78;;
22995;SDS011;11664;49.774;8.650;2023-11-21T02:04:06;7.15;;;6.50;;
22995;SDS011;11664;49.774;8.650;2023-11-21T02:06:34;7.10;;;6.47;;
22995;SDS011;11664;49.774;8.650;2023-11-21T02:09:03;4.20;;;4.00;;
22995;SDS011;11664;49.774;8.650;2023-11-21T02:11:39;5.43;;;4.93;;
22995;SDS011;11664;49.774;8.650;2023-11-21T02:14:04;7.90;;;7.35;;
22995;SDS011;11664;49.774;8.650;2023-11-21T02:16:34;7.93;;;7.43;;
22995;SDS011;11664;49.774;8.650;2023-11-21T02:19:06;6.75;;;6.25;;
22995;SDS011;11664;49.774;8.650;2023-11-21T02:21:37;7.60;;;7.18;;
22995;SDS011;11664;49.774;8.650;2023-11-21T02:24:08;9.88;;;9.23;;
22995;SDS011;11664;49.774;8.650;2023-11-21T02:26:35;10.95;;;9.95;;
22995;SDS011;11664;49.774;8.650;2023-11-21T02:29:00;13.30;;;12.55;;
22995;SDS011;11664;49.774;8.650;2023-11-21T02:31:29;9.80;;;9.20;;
22995;SDS011;11664;49.774;8.650;2023-11-21T02:33:55;8.23;;;7.57;;
22995;SDS011;11664;49.774;8.650;2023-11-21T02:36:23;7.97;;;6.30;;
22995;SDS011;11664;49.774;8.650;2023-11-21T02:38:51;8.00;;;6.03;;
22995;SDS011;11664;49.774;8.650;2023-11-21T02:41:20;6.75;;;6.35;;
22995;SDS011;11664;49.774;8.650;2023-11-21T02:43:45;9.15;;;8.55;;
22995;SDS011;11664;49.774;8.650;2023-11-21T02:46:14;5.82;;;5.43;;
22995;SDS011;11664;49.774;8.650;2023-11-21T02:48:39;4.35;;;4.05;;
22995;SDS011;11664;49.774;8.650;2023-11-21T02:51:08;5.68;;;5.35;;
22995;SDS011;11664;49.774;8.650;2023-11-21T02:53:33;6.93;;;6.53;;
22995;SDS011;11664;49.774;8.650;2023-11-21T02:56:02;7.60;;;5.63;;
22995;SDS011;11664;49.774;8.650;2023-11-21T02:58:30;5.88;;;5.47;;
22995;SDS011;11664;49.774;8.650;2023-11-21T03:00:56;6.25;;;5.85;;
22995;SDS011;11664;49.774;8.650;2023-11-21T03:03:21;8.35;;;7.78;;
22995;SDS011;11664;49.774;8.650;2023-11-21T03:05:49;8.30;;;7.72;;
22995;SDS011;11664;49.774;8.650;2023-11-21T03:08:15;7.22;;;6.72;;
22995;SDS011;11664;49.774;8.650;2023-11-21T03:10:49;8.10;;;7.60;;
22995;SDS011;11664;49.774;8.650;2023-11-21T03:13:18;10.32;;;9.65;;
22995;SDS011;11664;49.774;8.650;2023-11-21T03:15:49;10.55;;;9.95;;
22995;SDS011;11664;49.774;8.650;2023-11-21T03:18:21;9.18;;;8.57;;
22995;SDS011;11664;49.774;8.650;2023-11-21T03:20:49;17.52;;;16.42;;
22995;SDS011;11664;49.774;8.650;2023-11-21T03:23:27;23.80;;;22.35;;
22995;SDS011;11664;49.774;8.650;2023-11-21T03:25:55;16.35;;;15.30;;
22995;SDS011;11664;49.774;8.650;2023-11-21T03:28:21;7.78;;;7.38;;
22995;SDS011;11664;49.774;8.650;2023-11-21T03:30:46;6.18;;;5.75;;
22995;SDS011;11664;49.774;8.650;2023-11-21T03:33:15;5.20;;;4.82;;
22995;SDS011;11664;49.774;8.650;2023-11-21T03:35:43;5.88;;;4.95;;
22995;SDS011;11664;49.774;8.650;2023-11-21T03:38:18;5.53;;;5.00;;
22995;SDS011;11664;49.774;8.650;2023-11-21T03:40:44;4.55;;;4.25;;
22995;SDS011;11664;49.774;8.650;2023-11-21T03:43:13;5.18;;;4.68;;
22995;SDS011;11664;49.774;8.650;2023-11-21T03:45:39;6.20;;;4.60;;
22995;SDS011;11664;49.774;8.650;2023-11-21T03:48:05;5.47;;;5.07;;
22995;SDS011;11664;49.774;8.650;2023-11-21T03:50:34;7.68;;;7.18;;
22995;SDS011;11664;49.774;8.650;2023-11-21T03:53:00;8.20;;;7.55;;
22995;SDS011;11664;49.774;8.650;2023-11-21T03:55:26;5.20;;;4.70;;
22995;SDS011;11664;49.774;8.650;2023-11-21T03:57:52;8.15;;;7.65;;
22995;SDS011;11664;49.774;8.650;2023-11-21T04:00:24;8.38;;;7.85;;
22995;SDS011;11664;49.774;8.650;2023-11-21T04:02:51;10.30;;;9.80;;
22995;SDS011;11664;49.774;8.650;2023-11-21T04:05:17;5.78;;;5.35;;
22995;SDS011;11664;49.774;8.650;2023-11-21T04:07:49;6.00;;;5.40;;
22995;SDS011;11664;49.774;8.650;2023-11-21T04:10:16;5.38;;;4.47;;
22995;SDS011;11664;49.774;8.650;2023-11-21T04:12:45;5.50;;;5.20;;
22995;SDS011;11664;49.774;8.650;2023-11-21T04:15:17;5.20;;;4.90;;
22995;SDS011;11664;49.774;8.650;2023-11-21T04:17:42;5.63;;;5.22;;
22995;SDS011;11664;49.774;8.650;2023-11-21T04:20:08;5.97;;;5.57;;
22995;SDS011;11664;49.774;8.650;2023-11-21T04:22:41;4.72;;;4.43;;
22995;SDS011;11664;49.774;8.650;2023-11-21T04:25:09;6.35;;;5.85;;
22995;SDS011;11664;49.774;8.650;2023-11-21T04:27:43;7.00;;;6.55;;
22995;SDS011;11664;49.774;8.650;2023-11-21T04:30:21;12.93;;;12.23;;
22995;SDS011;11664;49.774;8.650;2023-11-21T04:32:47;14.65;;;13.85;;
22995;SDS011;11664;49.774;8.650;2023-11-21T04:35:12;10.65;;;9.73;;
22995;SDS011;11664;49.774;8.650;2023-11-21T04:37:38;12.73;;;11.70;;
22995;SDS011;11664;49.774;8.650;2023-11-21T04:40:07;14.52;;;13.73;;
22995;SDS011;11664;49.774;8.650;2023-11-21T04:42:34;8.80;;;8.18;;
22995;SDS011;11664;49.774;8.650;2023-11-21T04:45:09;3.75;;;3.45;;
22995;SDS011;11664;49.774;8.650;2023-11-21T04:47:46;3.80;;;3.50;;
22995;SDS011;11664;49.774;8.650;2023-11-21T04:50:18;9.57;;;8.88;;
22995;SDS011;11664;49.774;8.650;2023-11-21T04:55:09;5.55;;;5.18;;
22995;SDS011;11664;49.774;8.650;2023-11-21T04:57:35;7.38;;;6.78;;
22995;SDS011;11664;49.774;8.650;2023-11-21T05:00:09;8.57;;;8.07;;
22995;SDS011;11664;49.774;8.650;2023-11-21T05:02:34;16.15;;;15.13;;
22995;SDS011;11664;49.774;8.650;2023-11-21T05:05:03;10.57;;;9.90;;
22995;SDS011;11664;49.774;8.650;2023-11-21T05:07:35;12.93;;;12.13;;
22995;SDS011;11664;49.774;8.650;2023-11-21T05:10:05;13.57;;;12.75;;
22995;SDS011;11664;49.774;8.650;2023-11-21T05:12:33;15.32;;;14.20;;
22995;SDS011;11664;49.774;8.650;2023-11-21T05:15:05;17.83;;;16.45;;
22995;SDS011;11664;49.774;8.650;2023-11-21T05:17:37;16.77;;;15.57;;
22995;SDS011;11664;49.774;8.650;2023-11-21T05:20:10;15.38;;;13.98;;
22995;SDS011;11664;49.774;8.650;2023-11-21T05:22:40;17.02;;;15.82;;
22995;SDS011;11664;49.774;8.650;2023-11-21T05:25:07;21.08;;;19.50;;
22995;SDS011;11664;49.774;8.650;2023-11-21T05:27:36;26.92;;;25.08;;
22995;SDS011;11664;49.774;8.650;2023-11-21T05:30:05;11.43;;;10.43;;
22995;SDS011;11664;49.774;8.650;2023-11-21T05:32:31;9.45;;;8.50;;
22995;SDS011;11664;49.774;8.650;2023-11-21T05:35:00;11.38;;;9.18;;
22995;SDS011;11664;49.774;8.650;2023-11-21T05:37:29;8.60;;;7.80;;
22995;SDS011;11664;49.774;8.650;2023-11-21T05:40:01;6.95;;;6.03;;
22995;SDS011;11664;49.774;8.650;2023-11-21T05:42:34;10.05;;;7.22;;
22995;SDS011;11664;49.774;8.650;2023-11-21T05:45:00;9.18;;;7.80;;
22995;SDS011;11664;49.774;8.650;2023-11-21T05:47:45;8.30;;;7.50;;
22995;SDS011;11664;49.774;8.650;2023-11-21T05:50:11;8.52;;;7.72;;
22995;SDS011;11664;49.774;8.650;2023-11-21T05:52:42;9.18;;;7.55;;
22995;SDS011;11664;49.774;8.650;2023-11-21T05:55:11;9.82;;;8.82;;
22995;SDS011;11664;49.774;8.650;2023-11-21T05:57:50;8.23;;;6.75;;
22995;SDS011;11664;49.774;8.650;2023-11-21T06:00:15;9.35;;;7.95;;
22995;SDS011;11664;49.774;8.650;2023-11-21T06:02:47;9.87;;;7.17;;
22995;SDS011;11664;49.774;8.650;2023-11-21T06:05:29;9.13;;;8.18;;
22995;SDS011;11664;49.774;8.650;2023-11-21T06:07:59;10.60;;;9.65;;
22995;SDS011;11664;49.774;8.650;2023-11-21T06:10:26;19.00;;;17.63;;
22995;SDS011;11664;49.774;8.650;2023-11-21T06:12:56;14.65;;;13.27;;
22995;SDS011;11664;49.774;8.650;2023-11-21T06:15:22;9.60;;;8.73;;
22995;SDS011;11664;49.774;8.650;2023-11-21T06:17:51;7.18;;;6.45;;
22995;SDS011;11664;49.774;8.650;2023-11-21T06:20:17;8.95;;;7.53;;
22995;SDS011;11664;49.774;8.650;2023-11-21T06:22:49;12.13;;;10.95;;
22995;SDS011;11664;49.774;8.650;2023-11-21T06:25:17;10.88;;;9.88;;
22995;SDS011;11664;49.774;8.650;2023-11-21T06:27:47;9.50;;;8.60;;
22995;SDS011;11664;49.774;8.650;2023-11-21T06:30:28;8.07;;;7.28;;
22995;SDS011;11664;49.774;8.650;2023-11-21T06:32:54;10.27;;;7.47;;
22995;SDS011;11664;49.774;8.650;2023-11-21T06:35:21;6.50;;;5.80;;
22995;SDS011;11664;49.774;8.650;2023-11-21T06:37:52;6.22;;;5.63;;
22995;SDS011;11664;49.774;8.650;2023-11-21T06:40:18;5.67;;;4.57;;
22995;SDS011;11664;49.774;8.650;2023-11-21T06:42:44;8.20;;;7.70;;
22995;SDS011;11664;49.774;8.650;2023-11-21T06:45:10;8.18;;;7.78;;
22995;SDS011;11664;49.774;8.650;2023-11-21T06:47:36;3.72;;;3.53;;
22995;SDS011;11664;49.774;8.650;2023-11-21T06:50:03;4.47;;;4.28;;
22995;SDS011;11664;49.774;8.650;2023-11-21T06:52:29;8.85;;;8.45;;
22995;SDS011;11664;49.774;8.650;2023-11-21T06:54:54;7.50;;;7.15;;
22995;SDS011;11664;49.774;8.650;2023-11-21T06:57:20;5.78;;;5.55;;
22995;SDS011;11664;49.774;8.650;2023-11-21T06:59:50;6.30;;;6.00;;
22995;SDS011;11664;49.774;8.650;2023-11-21T07:02:19;6.60;;;6.30;;
22995;SDS011;11664;49.774;8.650;2023-11-21T07:04:57;5.65;;;5.25;;
22995;SDS011;11664;49.774;8.650;2023-11-21T07:07:28;12.30;;;11.73;;
22995;SDS011;11664;49.774;8.650;2023-11-21T07:09:54;11.82;;;11.27;;
22995;SDS011;11664;49.774;8.650;2023-11-21T07:12:19;6.57;;;6.28;;
22995;SDS011;11664;49.774;8.650;2023-11-21T07:14:48;5.70;;;5.43;;
22995;SDS011;11664;49.774;8.650;2023-11-21T07:17:17;10.98;;;10.45;;
22995;SDS011;11664;49.774;8.650;2023-11-21T07:19:55;8.43;;;8.02;;
22995;SDS011;11664;49.774;8.650;2023-11-21T07:22:21;7.28;;;6.97;;
22995;SDS011;11664;49.774;8.650;2023-11-21T07:24:49;4.95;;;4.72;;
22995;SDS011;11664;49.774;8.650;2023-11-21T07:27:18;13.65;;;12.98;;
22995;SDS011;11664;49.774;8.650;2023-11-21T07:29:44;6.55;;;6.25;;
22995;SDS011;11664;49.774;8.650;2023-11-21T07:32:16;9.73;;;9.23;;
22995;SDS011;11664;49.774;8.650;2023-11-21T07:34:41;6.15;;;5.65;;
22995;SDS011;11664;49.774;8.650;2023-11-21T07:37:10;6.13;;;5.80;;
22995;SDS011;11664;49.774;8.650;2023-11-21T07:39:50;4.80;;;4.50;;
22995;SDS011;11664;49.774;8.650;2023-11-21T07:42:26;6.50;;;6.20;;
22995;SDS011;11664;49.774;8.650;2023-11-21T07:44:55;8.30;;;7.90;;
22995;SDS011;11664;49.774;8.650;2023-11-21T07:47:24;7.88;;;7.47;;
22995;SDS011;11664;49.774;8.650;2023-11-21T07:49:55;8.07;;;7.70;;
22995;SDS011;11664;49.774;8.650;2023-11-21T07:52:21;11.45;;;10.82;;
22995;SDS011;11664;49.774;8.650;2023-11-21T07:54:49;6.20;;;5.90;;
22995;SDS011;11664;49.774;8.650;2023-11-21T07:57:15;7.10;;;6.80;;
22995;SDS011;11664;49.774;8.650;2023-11-21T07:59:41;5.50;;;5.25;;
22995;SDS011;11664;49.774;8.650;2023-11-21T08:02:12;5.97;;;5.68;;
22995;SDS011;11664;49.774;8.650;2023-11-21T08:04:41;7.10;;;6.80;;
22995;SDS011;11664;49.774;8.650;2023-11-21T08:07:10;9.82;;;9.27;;
22995;SDS011;11664;49.774;8.650;2023-11-21T08:09:36;10.93;;;10.43;;
22995;SDS011;11664;49.774;8.650;2023-11-21T08:12:04;11.43;;;10.82;;
22995;SDS011;11664;49.774;8.650;2023-11-21T08:14:30;8.02;;;7.60;;
22995;SDS011;11664;49.774;8.650;2023-11-21T08:16:55;7.75;;;7.25;;
22995;SDS011;11664;49.774;8.650;2023-11-21T08:19:22;6.60;;;5.78;;
22995;SDS011;11664;49.774;8.650;2023-11-21T08:21:50;7.80;;;7.35;;
22995;SDS011;11664;49.774;8.650;2023-11-21T08:24:22;6.13;;;5.72;;
22995;SDS011;11664;49.774;8.650;2023-11-21T08:26:48;7.25;;;6.85;;
22995;SDS011;11664;49.774;8.650;2023-11-21T08:29:17;5.93;;;5.53;;
22995;SDS011;11664;49.774;8.650;2023-11-21T08:31:49;8.80;;;8.10;;
22995;SDS011;11664;49.774;8.650;2023-11-21T08:34:15;9.50;;;8.85;;
22995;SDS011;11664;49.774;8.650;2023-11-21T08:36:46;11.38;;;10.57;;
22995;SDS011;11664;49.774;8.650;2023-11-21T08:39:12;9.10;;;8.38;;
22995;SDS011;11664;49.774;8.650;2023-11-21T08:41:41;7.22;;;6.72;;
22995;SDS011;11664;49.774;8.650;2023-11-21T08:44:06;6.13;;;5.43;;
22995;SDS011;11664;49.774;8.650;2023-11-21T08:46:32;5.35;;;4.82;;
22995;SDS011;11664;49.774;8.650;2023-11-21T08:49:02;7.32;;;6.65;;
22995;SDS011;11664;49.774;8.650;2023-11-21T08:51:31;14.70;;;13.02;;
22995;SDS011;11664;49.774;8.650;2023-11-21T08:53:57;10.05;;;9.25;;
22995;SDS011;11664;49.774;8.650;2023-11-21T08:56:24;9.90;;;9.07;;
22995;SDS011;11664;49.774;8.650;2023-11-21T09:02:01;15.57;;;13.98;;
22995;SDS011;11664;49.774;8.650;2023-11-21T09:04:26;6.93;;;6.32;;
22995;SDS011;11664;49.774;8.650;2023-11-21T09:06:52;6.15;;;5.68;;
22995;SDS011;11664;49.774;8.650;2023-11-21T09:09:17;5.63;;;5.22;;
22995;SDS011;11664;49.774;8.650;2023-11-21T09:11:56;4.80;;;4.40;;
22995;SDS011;11664;49.774;8.650;2023-11-21T09:14:25;6.93;;;5.50;;
22995;SDS011;11664;49.774;8.650;2023-11-21T09:16:54;22.05;;;6.35;;
22995;SDS011;11664;49.774;8.650;2023-11-21T09:19:19;6.72;;;6.05;;
22995;SDS011;11664;49.774;8.650;2023-11-21T09:21:47;5.05;;;4.55;;
22995;SDS011;11664;49.774;8.650;2023-11-21T09:24:14;4.75;;;4.35;;
22995;SDS011;11664;49.774;8.650;2023-11-21T09:26:39;5.57;;;5.07;;
22995;SDS011;11664;49.774;8.650;2023-11-21T09:29:05;10.77;;;9.93;;
22995;SDS011;11664;49.774;8.650;2023-11-21T09:31:30;7.05;;;6.45;;
22995;SDS011;11664;49.774;8.650;2023-11-21T09:33:56;6.20;;;4.55;;
22995;SDS011;11664;49.774;8.650;2023-11-21T09:36:25;5.90;;;4.45;;
22995;SDS011;11664;49.774;8.650;2023-11-21T09:38:52;5.32;;;4.82;;
22995;SDS011;11664;49.774;8.650;2023-11-21T09:41:21;6.32;;;5.68;;
22995;SDS011;11664;49.774;8.650;2023-11-21T09:44:05;6.65;;;6.25;;
22995;SDS011;11664;49.774;8.650;2023-11-21T09:46:39;7.72;;;7.13;;
22995;SDS011;11664;49.774;8.650;2023-11-21T09:49:08;5.07;;;4.57;;
22995;SDS011;11664;49.774;8.650;2023-11-21T09:51:54;7.70;;;7.13;;
22995;SDS011;11664;49.774;8.650;2023-11-21T09:54:26;5.78;;;5.38;;
22995;SDS011;11664;49.774;8.650;2023-11-21T09:57:03;5.95;;;5.45;;
22995;SDS011;11664;49.774;8.650;2023-11-21T09:59:30;4.43;;;4.03;;
22995;SDS011;11664;49.774;8.650;2023-11-21T10:01:57;5.93;;;5.43;;
22995;SDS011;11664;49.774;8.650;2023-11-21T10:04:23;8.38;;;7.82;;
22995;SDS011;11664;49.774;8.650;2023-11-21T10:06:49;6.72;;;6.30;;
22995;SDS011;11664;49.774;8.650;2023-11-21T10:09:16;14.23;;;13.45;;
22995;SDS011;11664;49.774;8.650;2023-11-21T10:11:42;8.20;;;7.60;;
22995;SDS011;11664;49.774;8.650;2023-11-21T10:14:15;6.22;;;5.72;;
22995;SDS011;11664;49.774;8.650;2023-11-21T10:16:46;9.48;;;8.88;;
22995;SDS011;11664;49.774;8.650;2023-11-21T10:19:13;5.78;;;5.38;;
22995;SDS011;11664;49.774;8.650;2023-11-21T10:21:47;6.68;;;6.15;;
22995;SDS011;11664;49.774;8.650;2023-11-21T10:24:18;7.85;;;7.07;;
22995;SDS011;11664;49.774;8.650;2023-11-21T10:26:44;6.30;;;5.68;;
22995;SDS011;11664;49.774;8.650;2023-11-21T10:29:19;9.43;;;8.45;;
22995;SDS011;11664;49.774;8.650;2023-11-21T10:31:50;8.65;;;8.05;;
22995;SDS011;11664;49.774;8.650;2023-11-21T10:34:19;16.50;;;15.48;;
22995;SDS011;11664;49.774;8.650;2023-11-21T10:36:46;10.48;;;9.77;;
22995;SDS011;11664;49.774;8.650;2023-11-21T10:39:16;14.13;;;13.25;;
22995;SDS011;11664;49.774;8.650;2023-11-21T10:41:55;13.35;;;12.32;;
22995;SDS011;11664;49.774;8.650;2023-11-21T10:44:21;8.20;;;7.72;;
22995;SDS011;11664;49.774;8.650;2023-11-21T10:46:52;8.40;;;7.88;;
22995;SDS011;11664;49.774;8.650;2023-11-21T10:49:27;9.88;;;9.23;;
22995;SDS011;11664;49.774;8.650;2023-11-21T10:52:05;8.63;;;7.93;;
22995;SDS011;11664;49.774;8.650;2023-11-21T10:54:30;8.75;;;8.25;;
22995;SDS011;11664;49.774;8.650;2023-11-21T10:56:56;6.82;;;6.28;;
22995;SDS011;11664;49.774;8.650;2023-11-21T10:59:24;5.30;;;5.00;;
22995;SDS011;11664;49.774;8.650;2023-11-21T11:01:53;6.07;;;5.45;;
22995;SDS011;11664;49.774;8.650;2023-11-21T11:04:22;6.32;;;5.82;;
22995;SDS011;11664;49.774;8.650;2023-11-21T11:06:54;6.13;;;5.70;;
22995;SDS011;11664;49.774;8.650;2023-11-21T11:09:28;6.68;;;6.15;;
22995;SDS011;11664;49.774;8.650;2023-11-21T11:11:55;5.18;;;4.72;;
22995;SDS011;11664;49.774;8.650;2023-11-21T11:14:21;4.70;;;4.30;;
22995;SDS011;11664;49.774;8.650;2023-11-21T11:16:50;6.45;;;4.20;;
22995;SDS011;11664;49.774;8.650;2023-11-21T11:19:24;4.70;;;4.40;;
22995;SDS011;11664;49.774;8.650;2023-11-21T11:32:42;6.28;;;5.68;;
22995;SDS011;11664;49.774;8.650;2023-11-21T11:38:22;7.30;;;6.85;;
22995;SDS011;11664;49.774;8.650;2023-11-21T11:40:48;4.93;;;4.55;;
22995;SDS011;11664;49.774;8.650;2023-11-21T11:43:27;5.90;;;5.60;;
22995;SDS011;11664;49.774;8.650;2023-11-21T11:45:55;5.60;;;5.10;;
22995;SDS011;11664;49.774;8.650;2023-11-21T11:48:22;5.25;;;4.85;;
22995;SDS011;11664;49.774;8.650;2023-11-21T11:53:46;5.13;;;4.63;;
22995;SDS011;11664;49.774;8.650;2023-11-21T11:58:51;4.93;;;4.43;;
22995;SDS011;11664;49.774;8.650;2023-11-21T12:01:21;4.13;;;3.83;;
22995;SDS011;11664;49.774;8.650;2023-11-21T12:06:42;7.43;;;6.75;;
22995;SDS011;11664;49.774;8.650;2023-11-21T12:09:27;5.75;;;5.43;;
22995;SDS011;11664;49.774;8.650;2023-11-21T12:11:55;8.05;;;7.45;;
22995;SDS011;11664;49.774;8.650;2023-11-21T12:14:25;7.13;;;6.82;;
22995;SDS011;11664;49.774;8.650;2023-11-21T12:16:53;7.88;;;7.47;;
22995;SDS011;11664;49.774;8.650;2023-11-21T12:19:19;6.82;;;6.20;;
22995;SDS011;11664;49.774;8.650;2023-11-21T12:21:57;5.57;;;5.22;;
22995;SDS011;11664;49.774;8.650;2023-11-21T12:24:24;5.00;;;4.70;;
22995;SDS011;11664;49.774;8.650;2023-11-21T12:26:54;5.25;;;4.93;;
22995;SDS011;11664;49.774;8.650;2023-11-21T12:29:25;5.68;;;5.28;;
22995;SDS011;11664;49.774;8.650;2023-11-21T12:31:56;6.38;;;5.18;;
22995;SDS011;11664;49.774;8.650;2023-11-21T12:34:22;4.68;;;4.28;;
22995;SDS011;11664;49.774;8.650;2023-11-21T12:36:53;4.65;;;4.43;;
22995;SDS011;11664;49.774;8.650;2023-11-21T12:39:20;3.78;;;3.58;;
22995;SDS011;11664;49.774;8.650;2023-11-21T12:41:48;3.17;;;2.97;;
22995;SDS011;11664;49.774;8.650;2023-11-21T12:44:13;3.78;;;3.58;;
22995;SDS011;11664;49.774;8.650;2023-11-21T12:46:45;3.15;;;2.97;;
22995;SDS011;11664;49.774;8.650;2023-11-21T12:49:11;3.80;;;3.50;;
22995;SDS011;11664;49.774;8.650;2023-11-21T12:51:42;5.32;;;3.33;;
22995;SDS011;11664;49.774;8.650;2023-11-21T12:54:12;4.72;;;4.18;;
22995;SDS011;11664;49.774;8.650;2023-11-21T12:56:45;4.97;;;3.80;;
22995;SDS011;11664;49.774;8.650;2023-11-21T12:59:14;4.50;;;3.67;;
22995;SDS011;11664;49.774;8.650;2023-11-21T13:01:44;3.67;;;3.38;;
22995;SDS011;11664;49.774;8.650;2023-11-21T13:04:13;5.22;;;3.40;;
22995;SDS011;11664;49.774;8.650;2023-11-21T13:06:39;3.50;;;3.20;;
22995;SDS011;11664;49.774;8.650;2023-11-21T13:09:27;5.60;;;3.83;;
22995;SDS011;11664;49.774;8.650;2023-11-21T13:11:59;4.03;;;3.10;;
22995;SDS011;11664;49.774;8.650;2023-11-21T13:14:31;3.88;;;3.58;;
22995;SDS011;11664;49.774;8.650;2023-11-21T13:16:57;3.58;;;3.28;;
22995;SDS011;11664;49.774;8.650;2023-11-21T13:19:31;3.72;;;3.42;;
22995;SDS011;11664;49.774;8.650;2023-11-21T13:21:57;8.85;;;3.88;;
22995;SDS011;11664;49.774;8.650;2023-11-21T13:24:23;4.32;;;3.60;;
22995;SDS011;11664;49.774;8.650;2023-11-21T13:26:54;5.07;;;4.13;;
22995;SDS011;11664;49.774;8.650;2023-11-21T13:29:19;5.47;;;4.13;;
22995;SDS011;11664;49.774;8.650;2023-11-21T13:31:48;5.43;;;4.45;;
22995;SDS011;11664;49.774;8.650;2023-11-21T13:34:16;3.63;;;3.38;;
22995;SDS011;11664;49.774;8.650;2023-11-21T13:36:44;4.50;;;4.13;;
22995;SDS011;11664;49.774;8.650;2023-11-21T13:39:10;6.78;;;6.18;;
22995;SDS011;11664;49.774;8.650;2023-11-21T13:41:52;5.20;;;4.18;;
22995;SDS011;11664;49.774;8.650;2023-11-21T13:44:19;5.03;;;3.58;;
22995;SDS011;11664;49.774;8.650;2023-11-21T13:46:52;3.92;;;3.55;;
22995;SDS011;11664;49.774;8.650;2023-11-21T13:49:18;3.92;;;3.60;;
22995;SDS011;11664;49.774;8.650;2023-11-21T13:51:46;4.40;;;3.63;;
22995;SDS011;11664;49.774;8.650;2023-11-21T13:54:22;4.03;;;3.72;;
22995;SDS011;11664;49.774;8.650;2023-11-21T13:56:49;4.50;;;4.10;;
22995;SDS011;11664;49.774;8.650;2023-11-21T13:59:15;4.90;;;4.60;;
22995;SDS011;11664;49.774;8.650;2023-11-21T14:01:50;4.65;;;4.25;;
22995;SDS011;11664;49.774;8.650;2023-11-21T14:04:23;9.23;;;4.38;;
22995;SDS011;11664;49.774;8.650;2023-11-21T14:06:55;4.30;;;3.90;;
22995;SDS011;11664;49.774;8.650;2023-11-21T14:09:21;5.05;;;4.55;;
22995;SDS011;11664;49.774;8.650;2023-11-21T14:11:52;7.97;;;3.92;;
22995;SDS011;11664;49.774;8.650;2023-11-21T14:14:21;4.25;;;3.95;;
22995;SDS011;11664;49.774;8.650;2023-11-21T14:16:48;4.78;;;4.38;;
22995;SDS011;11664;49.774;8.650;2023-11-21T14:19:14;5.85;;;5.35;;
22995;SDS011;11664;49.774;8.650;2023-11-21T14:21:43;6.22;;;4.80;;
22995;SDS011;11664;49.774;8.650;2023-11-21T14:24:09;5.53;;;5.03;;
22995;SDS011;11664;49.774;8.650;2023-11-21T14:26:39;6.35;;;5.82;;
22995;SDS011;11664;49.774;8.650;2023-11-21T14:29:06;6.93;;;6.00;;
22995;SDS011;11664;49.774;8.650;2023-11-21T14:31:32;5.70;;;5.22;;
22995;SDS011;11664;49.774;8.650;2023-11-21T14:33:58;5.63;;;5.15;;
22995;SDS011;11664;49.774;8.650;2023-11-21T14:36:26;5.78;;;4.60;;
22995;SDS011;11664;49.774;8.650;2023-11-21T14:38:55;5.25;;;4.80;;
22995;SDS011;11664;49.774;8.650;2023-11-21T14:44:20;5.18;;;4.78;;
22995;SDS011;11664;49.774;8.650;2023-11-21T14:46:49;6.80;;;5.22;;
22995;SDS011;11664;49.774;8.650;2023-11-21T14:49:16;6.88;;;5.78;;
22995;SDS011;11664;49.774;8.650;2023-11-21T14:51:51;5.15;;;4.57;;
22995;SDS011;11664;49.774;8.650;2023-11-21T14:54:37;6.47;;;3.72;;
22995;SDS011;11664;49.774;8.650;2023-11-21T14:57:35;5.82;;;5.32;;
22995;SDS011;11664;49.774;8.650;2023-11-21T15:00:14;4.18;;;3.45;;
22995;SDS011;11664;49.774;8.650;2023-11-21T15:03:00;6.43;;;5.72;;
22995;SDS011;11664;49.774;8.650;2023-11-21T15:05:27;5.05;;;4.35;;
22995;SDS011;11664;49.774;8.650;2023-11-21T15:07:56;5.95;;;5.47;;
22995;SDS011;11664;49.774;8.650;2023-11-21T15:10:36;4.05;;;3.75;;
22995;SDS011;11664;49.774;8.650;2023-11-21T15:13:18;4.07;;;3.63;;
22995;SDS011;11664;49.774;8.650;2023-11-21T15:15:44;3.85;;;3.45;;
22995;SDS011;11664;49.774;8.650;2023-11-21T15:18:10;6.03;;;3.95;;
22995;SDS011;11664;49.774;8.650;2023-11-21T15:20:37;4.55;;;4.15;;
22995;SDS011;11664;49.774;8.650;2023-11-21T15:23:04;3.80;;;3.45;;
22995;SDS011;11664;49.774;8.650;2023-11-21T15:25:31;4.80;;;3.85;;